Time;durP1;ratioP1;P1;durP2;ratioP2;P2;SDS_P1;SDS_P2;PMS_P1;PMS_P2;Temp;Humidity;BMP_temperature;BMP_pressure;BME280_temperature;BME280_humidity;BME280_pressure;Samples;Min_cycle;Max_cycle;Signal;HPM_P1;HPM_P2
2021/03/25 00:02:00;;;;;;;61.07;38.03;;;;;;;4.24;79.04;101287.16;5095318;28;20175;-72
2021/03/25 00:04:25;;;;;;;65.57;38.73;;;;;;;4.24;78.99;101287.16;5094212;28;20174;-71
2021/03/25 00:06:54;;;;;;;67.93;39.87;;;;;;;4.22;79.07;101288.09;5094074;28;20181;-71
2021/03/25 00:09:29;;;;;;;70.27;40.30;;;;;;;4.23;78.75;101297.78;5093841;28;20198;-72
2021/03/25 00:11:55;;;;;;;64.63;38.17;;;;;;;4.13;79.23;101286.53;5093783;28;20192;-73
2021/03/25 00:14:20;;;;;;;65.00;39.67;;;;;;;4.06;79.60;101290.16;5095202;28;20602;-71
2021/03/25 00:16:46;;;;;;;60.27;37.47;;;;;;;4.01;79.35;101292.00;5095414;28;20630;-72
2021/03/25 00:19:11;;;;;;;65.43;39.13;;;;;;;4.01;79.58;101290.25;5093657;28;20207;-72
2021/03/25 00:21:37;;;;;;;69.13;38.60;;;;;;;3.97;80.02;101288.56;5094784;28;20264;-73
2021/03/25 00:24:04;;;;;;;74.97;40.00;;;;;;;4.00;79.71;101280.56;5093663;28;20178;-72
2021/03/25 00:26:30;;;;;;;64.13;38.27;;;;;;;3.97;79.92;101283.28;5093359;28;20224;-71
2021/03/25 00:28:56;;;;;;;68.43;38.87;;;;;;;3.97;80.01;101288.56;5093715;28;20205;-71
2021/03/25 00:31:21;;;;;;;64.67;39.43;;;;;;;3.99;79.74;101278.84;5094639;28;20585;-72
2021/03/25 00:33:46;;;;;;;68.17;39.83;;;;;;;4.02;79.34;101284.06;5094520;28;20634;-72
2021/03/25 00:36:11;;;;;;;71.23;40.50;;;;;;;4.10;79.09;101280.44;5094521;28;20184;-72
2021/03/25 00:38:37;;;;;;;62.03;37.17;;;;;;;4.07;79.29;101282.19;5094834;28;20191;-71
2021/03/25 00:41:03;;;;;;;70.13;39.33;;;;;;;4.17;79.22;101282.91;5094235;28;20208;-71
2021/03/25 00:43:28;;;;;;;64.00;38.20;;;;;;;4.20;79.21;101284.63;5093067;28;20173;-71
2021/03/25 00:45:53;;;;;;;67.70;36.00;;;;;;;4.22;79.10;101277.53;5094362;28;20475;-72
2021/03/25 00:48:21;;;;;;;68.53;39.50;;;;;;;4.23;78.87;101279.28;5094089;28;20209;-72
2021/03/25 00:50:49;;;;;;;63.90;36.90;;;;;;;4.18;79.16;101274.09;5092904;28;20192;-72
2021/03/25 00:53:18;;;;;;;62.60;36.00;;;;;;;4.22;79.23;101272.25;5094335;28;20546;-72
2021/03/25 00:55:44;;;;;;;57.70;37.33;;;;;;;4.23;78.96;101272.22;5092961;28;20276;-71
2021/03/25 00:58:09;;;;;;;66.10;36.83;;;;;;;4.18;79.17;101267.94;5093266;28;20174;-72
2021/03/25 01:00:39;;;;;;;68.73;40.97;;;;;;;4.13;79.29;101265.38;5094024;28;20174;-72
2021/03/25 01:03:06;;;;;;;75.37;43.60;;;;;;;4.12;79.33;101262.78;5094224;28;20638;-72
2021/03/25 01:05:31;;;;;;;70.30;43.70;;;;;;;4.03;79.50;101264.66;5092772;28;20170;-72
2021/03/25 01:07:56;;;;;;;66.53;39.73;;;;;;;4.03;79.63;101263.78;5092919;28;20554;-72
2021/03/25 01:10:30;;;;;;;66.47;39.20;;;;;;;4.02;79.73;101260.28;5092987;28;20181;-72
2021/03/25 01:12:56;;;;;;;61.93;39.20;;;;;;;4.06;79.49;101261.97;5092733;28;20158;-72
2021/03/25 01:15:21;;;;;;;65.80;38.30;;;;;;;4.11;79.51;101258.41;5092472;28;20174;-72
2021/03/25 01:17:52;;;;;;;72.10;41.53;;;;;;;4.14;78.77;101248.63;5092935;28;20177;-72
2021/03/25 01:20:24;;;;;;;68.00;40.20;;;;;;;4.14;79.45;101253.03;5093975;28;20173;-72
2021/03/25 01:22:50;;;;;;;68.23;39.23;;;;;;;4.12;79.23;101260.13;5092869;28;20167;-72
2021/03/25 01:25:17;;;;;;;67.43;39.17;;;;;;;4.16;79.17;101261.81;5093663;28;20527;-72
2021/03/25 01:27:42;;;;;;;65.20;37.50;;;;;;;4.18;78.78;101262.66;5092244;28;20197;-72
2021/03/25 01:30:08;;;;;;;72.17;41.27;;;;;;;4.24;79.14;101265.16;5093749;28;20247;-72
2021/03/25 01:32:34;;;;;;;62.83;37.77;;;;;;;4.27;78.60;101262.47;5075677;28;20186;-71
2021/03/25 01:34:59;;;;;;;69.67;39.87;;;;;;;4.28;78.94;101266.84;5093577;28;20178;-72
2021/03/25 01:37:24;;;;;;;69.37;39.63;;;;;;;4.33;78.97;101262.31;5093414;28;20205;-72
2021/03/25 01:39:50;;;;;;;68.57;40.13;;;;;;;4.42;78.32;101263.91;5093056;28;20240;-72
2021/03/25 01:42:25;;;;;;;67.77;39.13;;;;;;;4.44;78.32;101256.81;5092564;28;20174;-72
2021/03/25 01:44:54;;;;;;;67.63;40.67;;;;;;;4.42;78.31;101253.34;5094638;28;20181;-72
2021/03/25 01:47:20;;;;;;;66.53;39.57;;;;;;;4.36;78.66;101254.34;5092148;28;20647;-72
2021/03/25 01:49:45;;;;;;;64.43;39.33;;;;;;;4.31;78.51;101249.16;5093393;28;20273;-73
2021/03/25 01:52:38;;;;;;;65.27;39.50;;;;;;;4.21;79.14;101244.09;5093637;28;20173;-72
2021/03/25 01:55:28;;;;;;;70.87;40.10;;;;;;;4.16;79.59;101240.69;5093797;28;20201;-72
2021/03/25 01:58:02;;;;;;;75.43;41.27;;;;;;;4.06;79.73;101238.19;5092970;28;20527;-73
2021/03/25 02:00:48;;;;;;;67.97;40.00;;;;;;;4.00;80.01;101235.69;5094973;28;20169;-72
2021/03/25 02:03:40;;;;;;;72.93;42.67;;;;;;;3.96;80.49;101236.63;5094597;28;20552;-72
2021/03/25 02:06:08;;;;;;;70.97;41.17;;;;;;;3.94;80.18;101243.72;5093181;28;20215;-71
2021/03/25 02:08:47;;;;;;;72.13;40.93;;;;;;;3.96;80.45;101236.63;5095024;28;20225;-73
2021/03/25 02:11:31;;;;;;;68.87;41.10;;;;;;;3.96;80.66;101239.28;5093771;28;20189;-72
2021/03/25 02:14:07;;;;;;;80.10;43.03;;;;;;;4.01;79.92;101241.81;5094712;28;20271;-71
2021/03/25 02:16:45;;;;;;;69.23;42.10;;;;;;;4.06;79.51;101240.84;5094535;28;20223;-71
2021/03/25 02:19:28;;;;;;;71.87;40.77;;;;;;;4.08;79.88;101236.38;5094984;28;20279;-72
2021/03/25 02:22:36;;;;;;;73.93;43.03;;;;;;;4.13;79.71;101233.69;5092756;28;20592;-71
2021/03/25 02:25:15;;;;;;;76.00;41.73;;;;;;;4.15;79.43;101239.81;4994549;28;20319;-71
2021/03/25 02:27:53;;;;;;;72.33;42.37;;;;;;;4.15;79.41;101234.53;5084623;28;20242;-72
2021/03/25 02:30:45;;;;;;;73.20;42.67;;;;;;;4.06;80.09;101230.25;5091790;28;20675;-72
2021/03/25 02:33:14;;;;;;;73.80;42.97;;;;;;;4.01;79.93;101247.97;5081566;28;20246;-73
2021/03/25 02:35:43;;;;;;;69.97;42.10;;;;;;;3.94;80.01;101243.72;5091422;28;20253;-73
2021/03/25 02:38:14;;;;;;;75.27;41.47;;;;;;;3.91;80.26;101248.19;5091376;28;20559;-73
2021/03/25 02:40:43;;;;;;;72.57;42.13;;;;;;;3.86;80.54;101250.94;5074563;28;20643;-72
2021/03/25 02:43:33;;;;;;;71.70;40.30;;;;;;;3.83;80.90;101243.06;5091410;28;20177;-73
2021/03/25 02:46:02;;;;;;;74.80;43.63;;;;;;;3.90;81.13;101244.69;5091917;28;20158;-73
2021/03/25 02:48:28;;;;;;;68.37;42.43;;;;;;;3.92;80.54;101237.59;5091314;28;20229;-72
2021/03/25 02:51:05;;;;;;;69.23;41.67;;;;;;;3.98;80.94;101249.81;5091294;28;20231;-73
2021/03/25 02:53:39;;;;;;;77.70;43.57;;;;;;;4.05;80.58;101252.28;5094869;28;20162;-72
2021/03/25 02:56:10;;;;;;;70.93;43.00;;;;;;;4.01;80.15;101240.06;5095308;28;20227;-72
2021/03/25 02:58:37;;;;;;;72.30;43.40;;;;;;;4.10;80.02;101252.25;5096037;28;20194;-72
2021/03/25 03:01:09;;;;;;;69.90;42.67;;;;;;;4.05;79.93;101238.22;5094814;28;20193;-72
2021/03/25 03:03:38;;;;;;;70.10;42.07;;;;;;;4.15;79.84;101247.72;5095173;28;20653;-72
2021/03/25 03:06:05;;;;;;;80.83;43.70;;;;;;;4.22;79.57;101241.41;5094959;28;20178;-72
2021/03/25 03:08:39;;;;;;;75.60;40.90;;;;;;;4.26;79.58;101232.53;5094963;28;20566;-72
2021/03/25 03:11:18;;;;;;;71.37;41.43;;;;;;;4.29;79.41;101228.94;5094817;28;20261;-72
2021/03/25 03:14:10;;;;;;;73.80;41.20;;;;;;;4.32;78.60;101232.38;5095841;28;20196;-72
2021/03/25 03:16:47;;;;;;;77.10;43.47;;;;;;;4.27;78.74;101223.69;5084194;28;20189;-72
2021/03/25 03:19:32;;;;;;;72.30;41.67;;;;;;;4.13;79.18;101225.75;5094312;28;20662;-72
2021/03/25 03:21:59;;;;;;;85.20;41.10;;;;;;;4.00;79.87;101229.53;5094609;28;20162;-72
2021/03/25 03:24:25;;;;;;;69.50;39.53;;;;;;;3.79;80.90;101228.19;5094774;28;20181;-71
2021/03/25 03:26:54;;;;;;;81.77;45.40;;;;;;;3.73;81.31;101223.88;5094604;28;20197;-70
2021/03/25 03:29:21;;;;;;;81.07;44.10;;;;;;;3.72;81.67;101221.28;5077682;28;20210;-72
2021/03/25 03:31:57;;;;;;;85.20;47.23;;;;;;;3.71;81.81;101223.00;5095534;28;20175;-72
2021/03/25 03:34:31;;;;;;;84.93;46.40;;;;;;;3.63;81.81;101219.66;5094540;28;20224;-71
2021/03/25 03:36:59;;;;;;;83.27;46.63;;;;;;;3.58;82.40;101223.28;5094551;28;20209;-71
2021/03/25 03:39:27;;;;;;;85.17;45.57;;;;;;;3.49;82.29;101223.44;5094394;28;20198;-72
2021/03/25 03:41:59;;;;;;;93.17;49.23;;;;;;;3.50;82.85;101217.28;5094698;28;20174;-71
2021/03/25 03:44:27;;;;;;;84.27;46.17;;;;;;;3.45;82.87;101212.09;5094376;28;20212;-72
2021/03/25 03:46:55;;;;;;;88.93;47.30;;;;;;;3.39;83.27;101210.44;5094378;28;20269;-71
2021/03/25 03:49:43;;;;;;;87.73;48.00;;;;;;;3.41;82.97;101206.00;5094393;28;20198;-72
2021/03/25 03:52:13;;;;;;;94.33;50.27;;;;;;;3.45;82.87;101206.81;5094576;28;20166;-72
2021/03/25 03:54:39;;;;;;;86.17;44.83;;;;;;;3.44;82.80;101207.69;5094376;28;20162;-72
2021/03/25 03:57:22;;;;;;;81.60;46.63;;;;;;;3.43;82.47;101206.84;5093979;28;20230;-72
2021/03/25 04:00:32;;;;;;;81.73;45.60;;;;;;;3.39;83.03;101202.50;5093782;28;20202;-71
2021/03/25 04:03:06;;;;;;;77.57;43.90;;;;;;;3.32;83.08;101207.88;5090042;28;20216;-72
2021/03/25 04:05:34;;;;;;;83.37;46.97;;;;;;;3.33;83.16;101207.88;5094079;28;20196;-72
2021/03/25 04:08:08;;;;;;;79.37;44.50;;;;;;;3.31;83.67;101219.34;5093562;28;20736;-71
2021/03/25 04:10:40;;;;;;;78.10;44.17;;;;;;;3.39;83.30;101239.44;5095083;28;20159;-71
2021/03/25 04:13:09;;;;;;;80.97;43.93;;;;;;;3.34;82.78;101229.84;5093723;28;20247;-71
2021/03/25 04:15:38;;;;;;;76.37;44.30;;;;;;;3.27;83.01;101237.00;5076402;28;20265;-71
2021/03/25 04:18:24;;;;;;;79.60;45.27;;;;;;;3.22;83.55;101227.41;5093117;28;20645;-71
2021/03/25 04:20:54;;;;;;;79.27;43.67;;;;;;;3.21;84.00;101226.56;5093408;28;20226;-71
2021/03/25 04:23:23;;;;;;;76.83;43.73;;;;;;;3.34;83.83;101228.06;5093351;28;20622;-71
2021/03/25 04:25:51;;;;;;;74.80;42.63;;;;;;;3.50;83.35;101233.09;5093380;28;20185;-71
2021/03/25 04:28:24;;;;;;;74.10;42.73;;;;;;;3.60;82.42;101232.03;5092687;28;20213;-71
2021/03/25 04:30:53;;;;;;;76.57;42.77;;;;;;;3.66;81.39;101229.28;5093412;28;20166;-71
2021/03/25 04:33:21;;;;;;;74.83;41.93;;;;;;;3.69;81.30;101230.09;5093014;28;20534;-71
2021/03/25 04:35:47;;;;;;;72.17;41.67;;;;;;;3.70;81.45;101229.19;5094222;28;20181;-71
2021/03/25 04:38:18;;;;;;;75.03;42.30;;;;;;;3.65;81.12;101223.13;5092691;28;20173;-71
2021/03/25 04:40:44;;;;;;;80.30;42.47;;;;;;;3.60;81.24;101227.63;5092660;28;20178;-71
2021/03/25 04:43:10;;;;;;;75.83;41.00;;;;;;;3.58;82.08;101225.91;5093001;28;20230;-71
2021/03/25 04:45:53;;;;;;;70.77;41.73;;;;;;;3.55;82.04;101236.53;5093409;28;20185;-71
2021/03/25 04:48:22;;;;;;;80.33;44.33;;;;;;;3.55;82.47;101244.44;5093430;28;20604;-71
2021/03/25 04:51:04;;;;;;;74.93;43.20;;;;;;;3.52;82.16;101249.78;5092764;28;20653;-71
2021/03/25 04:53:33;;;;;;;77.00;42.77;;;;;;;3.51;82.40;101245.41;5094332;28;20174;-71
2021/03/25 04:55:58;;;;;;;76.30;42.67;;;;;;;3.57;82.22;101247.94;5092797;28;20235;-71
2021/03/25 04:58:37;;;;;;;75.47;42.47;;;;;;;3.50;82.11;101247.19;5092505;28;20616;-71
2021/03/25 05:01:07;;;;;;;79.57;43.40;;;;;;;3.48;81.88;101245.47;5092954;28;20175;-72
2021/03/25 05:03:32;;;;;;;70.73;41.10;;;;;;;3.48;82.18;101250.75;5093798;28;20263;-72
2021/03/25 05:05:58;;;;;;;76.17;41.67;;;;;;;3.43;82.13;101254.34;5092761;28;20264;-72
2021/03/25 05:08:28;;;;;;;73.07;41.80;;;;;;;3.48;82.32;101261.28;5093386;28;20258;-71
2021/03/25 05:11:04;;;;;;;75.03;41.20;;;;;;;3.45;81.98;101256.94;5092705;28;20173;-71
2021/03/25 05:13:38;;;;;;;73.33;41.73;;;;;;;3.39;82.46;101264.97;5092663;28;20604;-72
2021/03/25 05:16:29;;;;;;;70.87;39.37;;;;;;;3.34;82.26;101259.75;5093208;28;20295;-72
2021/03/25 05:18:54;;;;;;;75.27;42.63;;;;;;;3.30;82.89;101252.78;5094052;28;20211;-72
2021/03/25 05:21:27;;;;;;;72.73;41.63;;;;;;;3.33;82.41;101247.44;5093927;28;20626;-72
2021/03/25 05:24:33;;;;;;;74.23;41.00;;;;;;;3.40;82.19;101258.78;5093187;28;20172;-72
2021/03/25 05:27:28;;;;;;;77.87;41.37;;;;;;;3.47;82.32;101267.47;5012835;28;20209;-73
2021/03/25 05:29:55;;;;;;;70.67;40.87;;;;;;;3.52;82.28;101268.25;5092882;28;20279;-72
2021/03/25 05:32:23;;;;;;;76.10;42.00;;;;;;;3.59;82.05;101270.75;5092900;28;20180;-72
2021/03/25 05:34:49;;;;;;;80.57;42.63;;;;;;;3.64;81.84;101268.03;5094541;28;20268;-72
2021/03/25 05:37:14;;;;;;;75.57;42.47;;;;;;;3.67;81.60;101260.94;5093326;28;20593;-71
2021/03/25 05:39:40;;;;;;;76.40;40.30;;;;;;;3.72;81.46;101267.03;5092712;28;20189;-71
2021/03/25 05:42:30;;;;;;;76.33;43.13;;;;;;;3.74;81.31;101275.78;5093808;28;20681;-71
2021/03/25 05:45:23;;;;;;;78.87;43.20;;;;;;;3.80;81.59;101268.66;5094697;28;20163;-72
2021/03/25 05:48:19;;;;;;;74.50;41.03;;;;;;;3.85;80.73;101272.94;5092962;28;20173;-72
2021/03/25 05:50:53;;;;;;;72.73;41.93;;;;;;;3.91;80.88;101272.84;5094426;28;20174;-73
2021/03/25 05:53:43;;;;;;;68.13;39.67;;;;;;;3.98;80.35;101273.59;5092969;28;20244;-72
2021/03/25 05:56:14;;;;;;;73.97;42.20;;;;;;;4.01;80.47;101278.81;5094028;28;20232;-72
2021/03/25 05:58:59;;;;;;;71.47;41.50;;;;;;;4.01;80.26;101284.97;5096037;28;20193;-72
2021/03/25 06:01:48;;;;;;;70.67;40.80;;;;;;;4.02;79.55;101285.81;5092505;28;20161;-72
2021/03/25 06:04:18;;;;;;;73.97;40.67;;;;;;;4.06;80.16;101288.38;5092046;28;20205;-72
2021/03/25 06:07:11;;;;;;;68.93;40.30;;;;;;;4.14;79.67;101295.31;5093314;28;20265;-71
2021/03/25 06:09:54;;;;;;;77.17;40.30;;;;;;;4.22;78.85;101301.31;5093680;28;20729;-72
2021/03/25 06:12:25;;;;;;;68.17;39.67;;;;;;;4.27;79.12;101302.09;5093395;28;20249;-72
2021/03/25 06:15:05;;;;;;;69.73;40.17;;;;;;;4.39;78.55;101299.19;5093750;28;20181;-72
2021/03/25 06:17:37;;;;;;;65.83;38.13;;;;;;;4.54;77.86;101306.84;5092990;28;20178;-72
2021/03/25 06:20:13;;;;;;;68.30;38.67;;;;;;;4.71;77.17;101306.47;5092065;28;20213;-72
2021/03/25 06:22:44;;;;;;;67.87;39.03;;;;;;;4.87;76.63;101310.53;5092095;28;20155;-71
2021/03/25 06:25:40;;;;;;;63.67;38.43;;;;;;;5.08;76.16;101309.19;5092345;28;20187;-72
2021/03/25 06:28:18;;;;;;;68.27;39.17;;;;;;;5.25;75.71;101314.09;5096228;28;20216;-71
2021/03/25 06:31:20;;;;;;;66.13;39.37;;;;;;;4.87;76.72;101320.25;5078547;28;20174;-70
2021/03/25 06:33:54;;;;;;;64.67;39.43;;;;;;;5.21;75.95;101313.31;5096033;28;20189;-71
2021/03/25 06:36:32;;;;;;;66.70;39.60;;;;;;;5.26;75.00;101315.84;5095990;28;20163;-71
2021/03/25 06:38:59;;;;;;;69.93;40.13;;;;;;;5.29;75.68;101323.72;5095584;28;20546;-73
2021/03/25 06:41:42;;;;;;;64.07;38.37;;;;;;;5.39;75.03;101324.34;5095713;28;20576;-71
2021/03/25 06:44:46;;;;;;;64.33;37.83;;;;;;;5.38;74.59;101326.13;5095579;28;20158;-71
2021/03/25 06:47:34;;;;;;;59.93;37.67;;;;;;;5.36;74.24;101325.28;5040822;28;20647;-71
2021/03/25 06:50:03;;;;;;;64.27;37.47;;;;;;;5.41;74.22;101327.84;5095372;28;20288;-72
2021/03/25 06:52:29;;;;;;;70.23;39.83;;;;;;;5.23;74.56;101321.22;5095136;28;20178;-72
2021/03/25 06:54:59;;;;;;;61.30;38.27;;;;;;;5.27;75.25;101334.34;5095616;28;20238;-73
2021/03/25 06:57:25;;;;;;;67.17;38.80;;;;;;;5.29;75.24;101335.16;5095266;28;20215;-72
2021/03/25 06:59:54;;;;;;;64.60;36.93;;;;;;;5.25;75.05;101332.63;5077881;28;20198;-71
2021/03/25 07:02:23;;;;;;;65.87;36.83;;;;;;;5.17;75.33;101331.91;5095588;28;20170;-72
2021/03/25 07:04:50;;;;;;;67.70;38.20;;;;;;;4.98;76.00;101345.56;5095895;28;20274;-73
2021/03/25 07:07:33;;;;;;;61.77;37.77;;;;;;;5.02;76.14;101349.00;5094974;28;20170;-72
2021/03/25 07:09:59;;;;;;;67.93;39.30;;;;;;;4.98;76.82;101349.97;5096226;28;20213;-73
2021/03/25 07:12:30;;;;;;;67.77;39.83;;;;;;;5.02;76.15;101346.38;5096348;28;20166;-73
2021/03/25 07:14:56;;;;;;;63.43;38.27;;;;;;;5.01;76.04;101353.44;5094800;28;20703;-72
2021/03/25 07:17:40;;;;;;;72.97;41.33;;;;;;;5.05;76.38;101362.16;5095558;28;20170;-72
2021/03/25 07:20:19;;;;;;;68.90;38.00;;;;;;;5.17;75.79;101359.25;5095127;28;20194;-71
2021/03/25 07:23:02;;;;;;;64.47;36.77;;;;;;;5.33;76.22;101352.72;5094642;28;20165;-71
2021/03/25 07:25:29;;;;;;;61.30;37.40;;;;;;;5.42;75.41;101351.63;5096026;28;20163;-72
2021/03/25 07:27:55;;;;;;;59.83;37.03;;;;;;;5.53;75.62;101354.00;5094797;28;20213;-73
2021/03/25 07:30:23;;;;;;;59.47;35.30;;;;;;;5.65;74.85;101351.09;5094764;28;20174;-72
2021/03/25 07:32:51;;;;;;;67.33;37.43;;;;;;;5.75;74.98;101349.94;5094373;28;20251;-72
2021/03/25 07:35:36;;;;;;;63.13;38.70;;;;;;;5.83;74.70;101342.66;5094609;28;20172;-72
2021/03/25 07:38:15;;;;;;;56.83;34.17;;;;;;;5.99;74.36;101345.84;5093805;28;20146;-72
2021/03/25 07:40:43;;;;;;;65.23;36.70;;;;;;;6.08;74.77;101350.03;5094578;28;20671;-71
2021/03/25 07:43:22;;;;;;;58.90;34.83;;;;;;;6.28;74.68;101350.34;5094529;28;20166;-72
2021/03/25 07:45:47;;;;;;;64.90;33.10;;;;;;;6.48;74.31;101352.47;5096247;28;20158;-72
2021/03/25 07:48:23;;;;;;;53.13;33.93;;;;;;;6.57;73.82;101360.16;5094646;28;20229;-71
2021/03/25 07:50:50;;;;;;;58.50;33.97;;;;;;;6.82;72.55;101355.03;5102942;28;20154;-71
2021/03/25 07:53:21;;;;;;;55.73;33.93;;;;;;;6.95;73.06;101353.75;5099527;28;20166;-72
2021/03/25 07:55:47;;;;;;;44.80;29.70;;;;;;;7.06;72.88;101353.44;5096651;28;20155;-72
2021/03/25 07:58:18;;;;;;;52.37;32.93;;;;;;;7.21;72.13;101364.47;5095844;28;20170;-72
2021/03/25 08:00:44;;;;;;;50.73;32.27;;;;;;;7.20;72.41;101362.72;5096525;28;20168;-71
2021/03/25 08:03:09;;;;;;;53.00;31.83;;;;;;;7.17;72.13;101373.44;5095654;28;20226;-72
2021/03/25 08:05:35;;;;;;;49.87;30.97;;;;;;;7.31;72.44;101367.72;5095267;28;20197;-71
2021/03/25 08:08:05;;;;;;;54.63;31.50;;;;;;;7.39;72.11;101364.81;5095165;28;20264;-72
2021/03/25 08:10:37;;;;;;;50.63;30.83;;;;;;;7.58;71.40;101368.63;5094244;28;20183;-71
2021/03/25 08:13:08;;;;;;;54.67;33.17;;;;;;;7.65;71.49;101367.50;5094078;28;20558;-73
2021/03/25 08:15:43;;;;;;;51.23;30.70;;;;;;;7.72;71.53;101363.72;5094752;28;20166;-72
2021/03/25 08:18:36;;;;;;;58.93;33.87;;;;;;;7.90;70.75;101364.94;5094093;28;20257;-72
2021/03/25 08:21:26;;;;;;;47.73;31.57;;;;;;;8.01;70.48;101369.88;5095329;28;20225;-72
2021/03/25 08:24:13;;;;;;;52.10;32.00;;;;;;;8.16;70.40;101367.56;5095402;28;20161;-72
2021/03/25 08:27:14;;;;;;;50.90;31.30;;;;;;;8.17;69.88;101371.06;5093552;28;20653;-72
2021/03/25 08:29:55;;;;;;;49.60;29.70;;;;;;;8.25;70.52;101365.53;5093514;28;20243;-72
2021/03/25 08:32:29;;;;;;;51.07;30.80;;;;;;;8.14;70.58;101363.22;5093837;28;20196;-72
2021/03/25 08:35:12;;;;;;;49.10;30.63;;;;;;;8.22;71.17;101374.47;5095184;28;20172;-72
2021/03/25 08:38:01;;;;;;;55.67;32.33;;;;;;;8.30;70.50;101369.75;5094638;28;20518;-72
2021/03/25 08:40:47;;;;;;;53.07;32.53;;;;;;;8.11;71.81;101368.63;5094516;28;20223;-72
2021/03/25 08:43:21;;;;;;;47.40;31.00;;;;;;;8.43;69.97;101372.88;5094470;28;20520;-73
2021/03/25 08:45:57;;;;;;;45.83;30.23;;;;;;;8.80;68.84;101375.06;5076168;28;20165;-72
2021/03/25 08:48:32;;;;;;;48.50;30.23;;;;;;;8.72;68.98;101371.84;5093699;28;20281;-72
2021/03/25 08:51:06;;;;;;;46.20;30.10;;;;;;;8.72;69.25;101379.81;5092351;28;20236;-71
2021/03/25 08:53:42;;;;;;;40.67;26.87;;;;;;;9.14;68.57;101371.16;5093163;28;20164;-71
2021/03/25 08:56:16;;;;;;;48.30;30.70;;;;;;;9.27;67.77;101372.41;5093215;28;20176;-72
2021/03/25 08:58:42;;;;;;;43.10;27.50;;;;;;;9.46;67.66;101391.22;5094047;28;20189;-73
2021/03/25 09:01:16;;;;;;;46.63;29.57;;;;;;;9.54;66.34;101378.44;5092640;28;20173;-72
2021/03/25 09:03:47;;;;;;;45.67;28.30;;;;;;;9.67;66.66;101382.38;5092927;28;20162;-72
2021/03/25 09:06:18;;;;;;;43.30;27.33;;;;;;;9.76;65.65;101370.47;5092760;28;20261;-72
2021/03/25 09:08:45;;;;;;;45.03;27.43;;;;;;;9.91;65.29;101378.69;5093026;28;20202;-72
2021/03/25 09:11:13;;;;;;;37.67;24.23;;;;;;;10.11;65.15;101383.19;5092489;28;20269;-71
2021/03/25 09:13:48;;;;;;;38.03;23.87;;;;;;;10.38;64.21;101382.97;5092660;28;20247;-71
2021/03/25 09:16:31;;;;;;;43.97;26.70;;;;;;;10.56;64.18;101384.84;5093022;28;20154;-71
2021/03/25 09:18:56;;;;;;;40.73;24.70;;;;;;;11.24;62.25;101381.72;5092646;28;20181;-70
2021/03/25 09:21:28;;;;;;;34.57;22.30;;;;;;;11.66;61.02;101379.72;5093316;28;20531;-71
2021/03/25 09:23:59;;;;;;;43.23;27.63;;;;;;;11.51;60.80;101374.16;5091921;28;20717;-71
2021/03/25 09:26:24;;;;;;;39.57;25.00;;;;;;;11.83;60.80;101382.47;5093739;28;20181;-72
2021/03/25 09:28:53;;;;;;;39.33;26.30;;;;;;;11.37;61.80;101373.09;5093530;28;20544;-71
2021/03/25 09:31:20;;;;;;;41.00;26.10;;;;;;;11.69;61.96;101374.22;5093433;28;20181;-71
2021/03/25 09:33:48;;;;;;;39.90;26.77;;;;;;;12.02;60.34;101377.94;5093351;28;20223;-71
2021/03/25 09:36:16;;;;;;;45.00;26.23;;;;;;;12.03;60.05;101373.47;5093401;28;20568;-71
2021/03/25 09:38:41;;;;;;;41.43;26.27;;;;;;;11.49;61.30;101375.19;5093264;28;20182;-72
2021/03/25 09:41:07;;;;;;;35.43;23.33;;;;;;;12.19;59.58;101377.94;5093402;28;20265;-71
2021/03/25 09:43:39;;;;;;;31.93;21.33;;;;;;;11.96;60.45;101377.41;5094842;28;20170;-72
2021/03/25 09:46:28;;;;;;;37.67;22.77;;;;;;;11.68;60.82;101377.84;5095344;28;20261;-72
2021/03/25 09:48:56;;;;;;;34.73;22.57;;;;;;;10.96;63.13;101389.25;5092089;28;20597;-71
2021/03/25 09:51:26;;;;;;;32.47;22.07;;;;;;;11.38;62.24;101386.41;5092290;28;20175;-72
2021/03/25 09:53:56;;;;;;;30.53;19.50;;;;;;;11.62;61.49;101383.50;5092100;28;20162;-71
2021/03/25 09:56:25;;;;;;;32.10;20.57;;;;;;;10.72;64.00;101393.91;5091925;28;20265;-72
2021/03/25 09:58:51;;;;;;;32.43;21.73;;;;;;;10.65;64.13;101389.78;5093058;28;20193;-71
2021/03/25 10:01:39;;;;;;;31.57;20.67;;;;;;;11.89;59.92;101388.41;5094166;28;20224;-71
2021/03/25 10:04:27;;;;;;;30.97;21.30;;;;;;;12.42;58.26;101392.84;5096007;28;20209;-72
2021/03/25 10:06:57;;;;;;;34.27;22.80;;;;;;;12.40;58.25;101392.06;5098305;28;20200;-72
2021/03/25 10:09:47;;;;;;;35.73;22.83;;;;;;;12.11;59.80;101377.47;5096595;28;20202;-73
2021/03/25 10:12:13;;;;;;;33.97;21.57;;;;;;;12.35;58.87;101379.84;5099024;28;20174;-73
2021/03/25 10:14:57;;;;;;;28.33;20.00;;;;;;;13.09;57.00;101383.03;5099389;28;20174;-72
2021/03/25 10:17:42;;;;;;;29.00;20.53;;;;;;;13.14;55.78;101386.34;5098225;28;20170;-72
2021/03/25 10:20:11;;;;;;;30.93;20.87;;;;;;;12.79;57.21;101389.09;5098944;28;20198;-72
2021/03/25 10:22:36;;;;;;;26.93;17.90;;;;;;;12.92;56.83;101381.25;5097055;28;20178;-72
2021/03/25 10:25:02;;;;;;;25.90;16.47;;;;;;;13.11;56.34;101382.00;5098168;28;20184;-72
2021/03/25 10:27:30;;;;;;;26.67;17.43;;;;;;;12.95;55.31;101375.72;5096208;28;20715;-71
2021/03/25 10:29:55;;;;;;;24.07;16.50;;;;;;;13.36;54.86;101389.56;5097629;28;20201;-73
2021/03/25 10:32:30;;;;;;;26.87;17.10;;;;;;;13.54;54.75;101381.47;5098419;28;20170;-71
2021/03/25 10:34:59;;;;;;;22.67;15.47;;;;;;;13.52;55.04;101380.69;5097448;28;20327;-71
2021/03/25 10:37:29;;;;;;;27.53;17.50;;;;;;;13.21;55.33;101381.53;5097380;28;20312;-71
2021/03/25 10:40:16;;;;;;;27.53;16.57;;;;;;;12.91;56.27;101378.66;5096952;28;20194;-71
2021/03/25 10:42:44;;;;;;;26.73;17.33;;;;;;;13.57;54.79;101382.16;5096932;28;20174;-72
2021/03/25 10:45:31;;;;;;;23.10;16.20;;;;;;;14.05;53.62;101380.28;5098273;28;20174;-71
2021/03/25 10:48:00;;;;;;;26.83;16.87;;;;;;;14.32;52.35;101378.63;5096467;28;20158;-72
2021/03/25 10:50:39;;;;;;;24.93;17.17;;;;;;;14.47;52.37;101386.75;5095879;28;20723;-71
2021/03/25 10:53:10;;;;;;;25.40;17.47;;;;;;;14.32;52.53;101383.16;5095509;28;20255;-71
2021/03/25 10:55:44;;;;;;;22.33;16.37;;;;;;;14.45;52.34;101376.09;5095994;28;20147;-72
2021/03/25 10:58:21;;;;;;;25.30;17.00;;;;;;;14.40;53.57;101370.97;5095487;28;20748;-73
2021/03/25 11:00:46;;;;;;;21.73;15.37;;;;;;;14.64;51.38;101375.88;5097521;28;20188;-71
2021/03/25 11:03:41;;;;;;;24.47;15.37;;;;;;;15.50;49.30;101369.47;5096932;28;20166;-72
2021/03/25 11:06:07;;;;;;;22.07;15.23;;;;;;;16.50;46.45;101366.41;5073830;28;20650;-73
2021/03/25 11:08:40;;;;;;;17.90;13.50;;;;;;;18.27;42.72;101365.16;5096559;28;20242;-71
2021/03/25 11:11:23;;;;;;;19.00;13.30;;;;;;;19.25;39.30;101366.41;5095694;28;20166;-71
2021/03/25 11:14:00;;;;;;;20.63;13.30;;;;;;;20.03;38.49;101367.25;5094393;28;20166;-71
2021/03/25 11:16:26;;;;;;;19.87;13.70;;;;;;;19.79;38.20;101367.47;5078048;28;20215;-72
2021/03/25 11:19:05;;;;;;;11.97;9.37;;;;;;;21.19;33.58;101374.34;5095488;28;20269;-72
2021/03/25 11:21:40;;;;;;;15.23;11.07;;;;;;;21.89;32.79;101376.13;5094883;28;20261;-72
2021/03/25 11:24:30;;;;;;;16.63;12.23;;;;;;;18.92;37.34;101361.00;5096688;28;20173;-72
2021/03/25 11:26:57;;;;;;;15.87;11.63;;;;;;;19.36;37.50;101373.69;5094931;28;20189;-70
2021/03/25 11:29:23;;;;;;;14.03;10.53;;;;;;;20.73;35.61;101356.69;5094847;28;20666;-72
2021/03/25 11:31:48;;;;;;;13.70;10.37;;;;;;;21.18;33.56;101362.59;5099063;28;20174;-71
2021/03/25 11:34:24;;;;;;;14.80;10.93;;;;;;;19.34;37.41;101362.13;5106129;28;20178;-71
2021/03/25 11:36:50;;;;;;;13.97;11.27;;;;;;;20.49;34.88;101356.97;5098265;28;20177;-72
2021/03/25 11:39:31;;;;;;;14.93;10.50;;;;;;;20.07;36.95;101355.16;5098225;28;20239;-72
2021/03/25 11:42:03;;;;;;;16.27;11.30;;;;;;;19.42;37.59;101359.66;5098880;28;20510;-73
2021/03/25 11:44:47;;;;;;;13.43;10.20;;;;;;;19.32;36.87;101355.94;5099435;28;20163;-72